Time;durP1;ratioP1;P1;durP2;ratioP2;P2;SDS_P1;SDS_P2;PMS_P1;PMS_P2;Temp;Humidity;BMP_temperature;BMP_pressure;BME280_temperature;BME280_humidity;BME280_pressure;Samples;Min_cycle;Max_cycle;Signal;HPM_P1;HPM_P2
2024/01/02 00:01:47;;;;;;;4.90;2.70;;;23.00;46.30;;;;;;6226123;27;80601;-59
2024/01/02 00:04:48;;;;;;;4.85;2.97;;;23.00;46.30;;;;;;6225553;27;80788;-59
2024/01/02 00:07:49;;;;;;;5.47;3.65;;;23.00;46.30;;;;;;6225441;27;80281;-58
2024/01/02 00:10:49;;;;;;;4.45;2.95;;;23.00;46.20;;;;;;6224313;27;80425;-59
2024/01/02 00:13:50;;;;;;;6.53;3.47;;;23.00;46.20;;;;;;6224503;28;82890;-60
2024/01/02 00:16:51;;;;;;;6.70;2.72;;;23.00;46.20;;;;;;6226017;27;80305;-59
2024/01/02 00:19:51;;;;;;;4.90;2.70;;;23.00;46.30;;;;;;6225124;27;80584;-60
2024/01/02 00:22:52;;;;;;;5.65;2.90;;;23.00;46.20;;;;;;6223473;27;80438;-61
2024/01/02 00:25:52;;;;;;;6.55;3.15;;;23.00;46.20;;;;;;6225068;27;80891;-59
2024/01/02 00:28:53;;;;;;;6.18;3.28;;;23.00;46.00;;;;;;6209383;27;80999;-59
2024/01/02 00:31:53;;;;;;;7.38;3.08;;;23.00;46.00;;;;;;6206172;27;81050;-60
2024/01/02 00:34:54;;;;;;;6.15;3.47;;;23.00;46.10;;;;;;6224788;28;81656;-69
2024/01/02 00:37:54;;;;;;;5.20;3.15;;;23.00;46.20;;;;;;6224995;27;80351;-68
2024/01/02 00:40:55;;;;;;;6.82;3.13;;;23.00;46.20;;;;;;6223934;28;83571;-66
2024/01/02 00:43:55;;;;;;;4.88;3.10;;;23.00;46.00;;;;;;6223560;27;82838;-67
2024/01/02 00:46:56;;;;;;;5.45;2.83;;;23.00;46.20;;;;;;6208077;27;81000;-70
2024/01/02 00:49:57;;;;;;;5.28;2.50;;;23.00;46.10;;;;;;6225518;27;82588;-69
2024/01/02 00:52:57;;;;;;;5.53;2.97;;;23.00;46.20;;;;;;6211039;27;80526;-58
2024/01/02 00:55:58;;;;;;;5.93;3.03;;;23.00;46.10;;;;;;6224203;27;81423;-59
2024/01/02 00:58:58;;;;;;;4.65;2.78;;;23.00;46.00;;;;;;6221998;28;82986;-58
2024/01/02 01:01:59;;;;;;;4.82;2.55;;;23.00;46.10;;;;;;6224757;27;81573;-59
2024/01/02 01:04:59;;;;;;;4.88;2.88;;;23.00;46.20;;;;;;6223233;27;82919;-58
2024/01/02 01:08:00;;;;;;;4.53;3.03;;;23.00;46.10;;;;;;6222026;27;81482;-59
2024/01/02 01:11:00;;;;;;;6.03;2.92;;;23.00;45.90;;;;;;6221827;27;80712;-58
2024/01/02 01:14:01;;;;;;;5.78;2.67;;;23.00;45.70;;;;;;6223112;27;80884;-59
2024/01/02 01:17:01;;;;;;;4.65;2.80;;;23.00;45.80;;;;;;6224864;27;80464;-58
2024/01/02 01:20:02;;;;;;;7.28;3.28;;;23.00;45.60;;;;;;6223268;27;80385;-57
2024/01/02 01:23:02;;;;;;;5.47;2.63;;;23.00;45.70;;;;;;6224373;27;80999;-58
2024/01/02 01:26:03;;;;;;;4.60;2.35;;;23.00;45.60;;;;;;6214928;27;83560;-57
2024/01/02 01:29:03;;;;;;;4.57;2.15;;;23.00;45.80;;;;;;6217728;27;81633;-53
2024/01/02 01:32:04;;;;;;;5.07;2.60;;;23.00;45.80;;;;;;6223097;27;81924;-52
2024/01/02 01:35:04;;;;;;;3.90;2.60;;;23.00;45.80;;;;;;6223356;27;80215;-55
2024/01/02 01:38:05;;;;;;;4.07;2.55;;;23.00;45.80;;;;;;6224404;27;80338;-54
2024/01/02 01:41:05;;;;;;;4.10;2.28;;;23.00;45.80;;;;;;6224584;27;81335;-53
2024/01/02 01:44:06;;;;;;;5.03;2.67;;;23.00;45.80;;;;;;6223576;27;80915;-55
2024/01/02 01:47:06;;;;;;;3.97;2.47;;;23.00;45.80;;;;;;6217825;27;80466;-51
2024/01/02 01:50:07;;;;;;;4.60;2.53;;;23.00;45.70;;;;;;6216250;27;82420;-50
2024/01/02 01:53:08;;;;;;;5.22;2.20;;;23.00;45.70;;;;;;6212641;27;81211;-50
2024/01/02 01:56:08;;;;;;;3.97;2.30;;;23.00;45.70;;;;;;6199910;28;81613;-49
2024/01/02 01:59:09;;;;;;;5.50;2.65;;;23.00;45.70;;;;;;6222569;28;83637;-49
2024/01/02 02:02:09;;;;;;;5.28;2.30;;;23.00;45.70;;;;;;6222689;28;83849;-54
2024/01/02 02:05:10;;;;;;;3.40;1.90;;;23.00;45.70;;;;;;6223251;27;81499;-59
2024/01/02 02:08:11;;;;;;;4.72;2.58;;;23.00;45.90;;;;;;6222986;27;81852;-60
2024/01/02 02:11:11;;;;;;;3.15;1.90;;;23.00;45.80;;;;;;6221307;27;81630;-60
2024/01/02 02:14:12;;;;;;;3.38;1.92;;;23.00;45.70;;;;;;6222348;27;82925;-60
2024/01/02 02:17:12;;;;;;;4.63;2.25;;;23.00;45.50;;;;;;6221959;27;81440;-60
2024/01/02 02:20:13;;;;;;;3.58;1.95;;;22.90;45.70;;;;;;6222562;27;81747;-59
2024/01/02 02:23:13;;;;;;;3.65;1.88;;;23.00;45.60;;;;;;6213432;27;81577;-54
2024/01/02 02:26:14;;;;;;;3.70;2.00;;;23.00;45.70;;;;;;6218259;27;80758;-50
2024/01/02 02:29:14;;;;;;;3.72;1.85;;;23.00;45.90;;;;;;6220936;28;81474;-51
2024/01/02 02:32:14;;;;;;;2.47;1.70;;;23.00;45.80;;;;;;6221898;28;83508;-52
2024/01/02 02:35:15;;;;;;;3.45;1.65;;;23.00;45.70;;;;;;6221949;27;85056;-54
2024/01/02 02:38:16;;;;;;;2.53;1.67;;;23.00;45.70;;;;;;6212977;27;83578;-48
2024/01/02 02:41:16;;;;;;;2.53;1.42;;;23.00;45.80;;;;;;6199848;28;80954;-70
2024/01/02 02:44:17;;;;;;;2.83;1.75;;;23.00;45.90;;;;;;6199742;27;80451;-68
2024/01/02 02:47:17;;;;;;;2.13;1.45;;;23.00;45.90;;;;;;6216843;27;80706;-67
2024/01/02 02:50:18;;;;;;;2.50;1.63;;;23.00;45.80;;;;;;6204046;27;82591;-66
2024/01/02 02:53:18;;;;;;;3.92;2.13;;;23.00;45.90;;;;;;6207498;27;83367;-67
2024/01/02 02:56:19;;;;;;;2.72;1.73;;;23.00;45.50;;;;;;6204451;27;80848;-67
2024/01/02 02:59:19;;;;;;;3.13;1.42;;;23.00;45.30;;;;;;6204196;27;80471;-67
2024/01/02 03:02:20;;;;;;;2.60;1.50;;;23.00;45.40;;;;;;6219477;27;82130;-57
2024/01/02 03:05:20;;;;;;;2.17;1.25;;;23.00;45.40;;;;;;6206204;27;82653;-57
2024/01/02 03:08:21;;;;;;;1.88;1.20;;;22.90;45.50;;;;;;6207551;27;80965;-57
2024/01/02 03:11:21;;;;;;;1.65;1.20;;;22.90;45.60;;;;;;6205064;27;81397;-56
2024/01/02 03:14:22;;;;;;;5.00;1.20;;;23.00;45.60;;;;;;6218901;27;83332;-55
2024/01/02 03:17:22;;;;;;;2.88;1.35;;;23.00;45.70;;;;;;6204338;27;81353;-56
2024/01/02 03:20:23;;;;;;;2.05;1.17;;;23.00;45.70;;;;;;6225403;27;80930;-60
2024/01/02 03:23:23;;;;;;;4.10;1.30;;;23.00;45.80;;;;;;6214407;27;80385;-60
2024/01/02 03:26:24;;;;;;;2.80;1.27;;;23.00;45.80;;;;;;6227066;27;80508;-59
2024/01/02 03:29:26;;;;;;;1.58;0.88;;;23.00;45.70;;;;;;6214360;27;80361;-59
2024/01/02 03:32:27;;;;;;;2.20;1.00;;;23.00;45.90;;;;;;6226470;27;80919;-61
2024/01/02 03:35:28;;;;;;;3.80;1.50;;;23.00;45.60;;;;;;6227019;27;80571;-61
2024/01/02 03:38:28;;;;;;;2.60;1.17;;;23.00;45.60;;;;;;6226394;27;80542;-69
2024/01/02 03:41:29;;;;;;;1.20;0.98;;;23.00;45.50;;;;;;6224439;27;80582;-68
2024/01/02 03:44:29;;;;;;;2.30;1.40;;;23.00;45.60;;;;;;6221282;27;81213;-68
2024/01/02 03:47:30;;;;;;;2.58;1.40;;;23.00;45.70;;;;;;6221394;27;81329;-64
2024/01/02 03:50:30;;;;;;;2.15;1.20;;;23.00;45.70;;;;;;6217812;27;81299;-66
2024/01/02 03:53:31;;;;;;;2.25;1.08;;;23.00;46.40;;;;;;6227073;27;80464;-66
2024/01/02 03:56:31;;;;;;;2.40;1.35;;;22.90;45.60;;;;;;6214710;27;80427;-68
2024/01/02 03:59:32;;;;;;;3.47;1.30;;;23.00;45.70;;;;;;6215043;27;80870;-66
2024/01/02 04:02:32;;;;;;;3.08;1.38;;;22.90;45.70;;;;;;6223537;27;80057;-67
2024/01/02 04:05:33;;;;;;;1.38;0.93;;;23.00;45.80;;;;;;6224895;27;80430;-69
2024/01/02 04:08:33;;;;;;;3.17;0.90;;;23.00;45.90;;;;;;6226086;27;81283;-69
2024/01/02 04:11:34;;;;;;;2.00;1.30;;;23.00;46.00;;;;;;6215268;27;81317;-67
2024/01/02 04:14:34;;;;;;;1.55;1.10;;;23.00;46.10;;;;;;6208150;28;80366;-55
2024/01/02 04:17:35;;;;;;;4.25;1.35;;;23.00;46.60;;;;;;6221226;27;81455;-56
2024/01/02 04:20:35;;;;;;;1.63;0.90;;;23.00;45.70;;;;;;6216280;27;83632;-55
2024/01/02 04:23:36;;;;;;;1.23;0.90;;;23.10;45.40;;;;;;6225269;27;81010;-51
2024/01/02 04:26:36;;;;;;;1.67;1.15;;;23.00;45.50;;;;;;6218253;27;80811;-53
2024/01/02 04:29:37;;;;;;;1.88;1.27;;;23.10;45.50;;;;;;6216360;27;80573;-48
2024/01/02 04:32:37;;;;;;;1.27;0.90;;;23.10;45.50;;;;;;6219645;27;81686;-59
2024/01/02 04:35:37;;;;;;;2.08;1.00;;;23.10;45.40;;;;;;6219038;27;80623;-59
2024/01/02 04:38:38;;;;;;;2.47;1.08;;;23.20;45.30;;;;;;6216864;27;80358;-59
2024/01/02 04:41:38;;;;;;;2.17;1.15;;;23.20;45.20;;;;;;6217038;27;80001;-57
2024/01/02 04:44:39;;;;;;;2.28;1.00;;;23.20;45.10;;;;;;6217084;27;80564;-59
2024/01/02 04:47:40;;;;;;;2.47;1.30;;;23.20;45.10;;;;;;6214338;28;80863;-59
2024/01/02 04:50:40;;;;;;;1.50;1.35;;;23.20;44.90;;;;;;6219224;27;80557;-58
2024/01/02 04:53:41;;;;;;;2.90;1.30;;;23.30;45.00;;;;;;6224605;27;81770;-55
2024/01/02 04:56:41;;;;;;;2.33;1.15;;;23.30;44.90;;;;;;6210126;27;80719;-58
2024/01/02 04:59:42;;;;;;;2.75;1.40;;;23.30;44.90;;;;;;6201319;28;80923;-59
2024/01/02 05:02:42;;;;;;;4.05;1.10;;;23.30;44.70;;;;;;6209038;27;80478;-61
2024/01/02 05:05:43;;;;;;;3.72;1.20;;;23.40;44.80;;;;;;6224569;27;80621;-59
2024/01/02 05:08:43;;;;;;;1.23;1.05;;;23.40;44.60;;;;;;6224758;27;81938;-61
2024/01/02 05:11:44;;;;;;;2.03;1.08;;;23.40;45.10;;;;;;6217014;27;80469;-62
2024/01/02 05:14:44;;;;;;;2.63;1.40;;;23.40;45.20;;;;;;6213614;28;80523;-60
2024/01/02 05:17:45;;;;;;;2.17;1.30;;;23.50;45.40;;;;;;6203834;27;81048;-60
2024/01/02 05:20:47;;;;;;;1.88;0.88;;;23.50;46.20;;;;;;6214365;27;82623;-59
2024/01/02 05:23:47;;;;;;;4.13;1.15;;;23.50;45.40;;;;;;6225156;27;84231;-60
2024/01/02 05:26:48;;;;;;;4.15;1.00;;;23.50;45.60;;;;;;6225653;27;82004;-60
2024/01/02 05:29:48;;;;;;;6.97;1.30;;;23.60;46.00;;;;;;6225422;27;81376;-53
2024/01/02 05:32:49;;;;;;;1.90;0.90;;;23.60;46.10;;;;;;6225187;28;82504;-61
2024/01/02 05:35:49;;;;;;;2.72;0.93;;;23.60;46.10;;;;;;6223717;27;80602;-60
2024/01/02 05:38:50;;;;;;;3.03;0.95;;;23.60;46.30;;;;;;6225296;27;81935;-58
2024/01/02 05:41:50;;;;;;;1.85;1.20;;;23.60;46.40;;;;;;6211714;28;87827;-59
2024/01/02 05:44:51;;;;;;;1.90;1.05;;;23.70;46.70;;;;;;6201179;27;84003;-62
2024/01/02 05:47:51;;;;;;;2.72;1.52;;;23.70;46.80;;;;;;6204888;27;80372;-62
2024/01/02 05:50:51;;;;;;;6.28;1.50;;;23.70;46.80;;;;;;6208012;27;80540;-58
2024/01/02 05:53:52;;;;;;;5.15;1.25;;;23.70;46.60;;;;;;6225547;27;80169;-62
2024/01/02 05:56:52;;;;;;;9.50;2.00;;;23.70;46.30;;;;;;6219500;28;81695;-57
2024/01/02 05:59:53;;;;;;;8.52;1.60;;;23.70;46.80;;;;;;6201966;28;81214;-61
2024/01/02 06:02:53;;;;;;;2.15;1.35;;;23.70;46.60;;;;;;6211574;28;80367;-65
2024/01/02 06:05:54;;;;;;;2.75;1.45;;;23.80;46.60;;;;;;6217336;27;81042;-55
2024/01/02 06:08:54;;;;;;;5.55;1.30;;;23.70;46.20;;;;;;6218974;27;80198;-49
2024/01/02 06:11:55;;;;;;;2.17;1.15;;;23.70;46.20;;;;;;6214779;27;80552;-52
2024/01/02 06:14:55;;;;;;;2.88;1.80;;;23.70;46.00;;;;;;6217281;27;82345;-53
2024/01/02 06:17:56;;;;;;;6.28;1.70;;;23.70;46.20;;;;;;6210298;27;82461;-53
2024/01/02 06:20:57;;;;;;;3.63;1.40;;;23.70;46.20;;;;;;6224034;27;80756;-50
2024/01/02 06:23:58;;;;;;;5.93;1.63;;;23.70;46.40;;;;;;6217595;27;83514;-50
2024/01/02 06:26:58;;;;;;;2.83;1.45;;;23.60;46.00;;;;;;6213596;27;80950;-54
2024/01/02 06:29:59;;;;;;;3.08;1.70;;;23.60;46.30;;;;;;6212601;27;81294;-53
2024/01/02 06:32:59;;;;;;;2.78;1.60;;;23.60;46.00;;;;;;6212535;27;80710;-54
2024/01/02 06:36:00;;;;;;;4.15;1.45;;;23.50;45.90;;;;;;6215539;27;80520;-53
2024/01/02 06:39:00;;;;;;;3.10;1.73;;;23.50;45.90;;;;;;6213913;27;80890;-49
2024/01/02 06:42:01;;;;;;;2.63;1.42;;;23.50;45.90;;;;;;6216247;27;81911;-60
2024/01/02 06:45:01;;;;;;;4.28;1.60;;;23.40;45.80;;;;;;6218671;27;80350;-59
2024/01/02 06:48:02;;;;;;;3.53;2.03;;;23.40;45.70;;;;;;6223140;27;83497;-60
2024/01/02 06:51:02;;;;;;;9.25;1.80;;;23.40;45.70;;;;;;6224915;27;80034;-59
2024/01/02 06:54:03;;;;;;;2.97;1.73;;;23.40;45.60;;;;;;6227663;27;82875;-58
2024/01/02 06:57:03;;;;;;;3.42;1.70;;;23.30;45.50;;;;;;6216461;27;81271;-59
2024/01/02 07:00:05;;;;;;;3.00;1.60;;;23.30;45.40;;;;;;6211581;27;81281;-61
2024/01/02 07:03:06;;;;;;;3.15;1.77;;;23.30;45.30;;;;;;6207055;27;81473;-60
2024/01/02 07:06:06;;;;;;;2.92;1.50;;;23.30;45.30;;;;;;6208496;27;81342;-60
2024/01/02 07:09:07;;;;;;;3.17;1.52;;;23.30;45.30;;;;;;6201150;27;80738;-61
2024/01/02 07:12:07;;;;;;;2.42;1.50;;;23.30;45.20;;;;;;6218272;27;80321;-61
2024/01/02 07:15:08;;;;;;;3.22;1.60;;;23.30;45.10;;;;;;6220836;27;80834;-61
2024/01/02 07:18:08;;;;;;;5.07;1.70;;;23.30;45.10;;;;;;6218005;27;80646;-60
2024/01/02 07:21:09;;;;;;;2.95;1.55;;;23.40;45.00;;;;;;6226941;27;80425;-59
2024/01/02 07:24:09;;;;;;;3.70;1.63;;;23.40;44.80;;;;;;6226729;27;80916;-60
2024/01/02 07:27:10;;;;;;;3.67;1.80;;;23.40;44.70;;;;;;6227539;27;81349;-60
2024/01/02 07:30:10;;;;;;;3.53;1.70;;;23.40;44.70;;;;;;6226015;27;80790;-58
2024/01/02 07:33:11;;;;;;;2.67;1.65;;;23.50;44.70;;;;;;6227198;27;80858;-60
2024/01/02 07:36:11;;;;;;;3.55;1.70;;;23.50;44.60;;;;;;6225074;27;81636;-61
2024/01/02 07:39:12;;;;;;;2.88;1.90;;;23.50;44.80;;;;;;6225660;27;82492;-62
2024/01/02 07:42:12;;;;;;;3.00;1.85;;;23.50;44.90;;;;;;6216551;27;80881;-51
2024/01/02 07:45:13;;;;;;;3.85;2.00;;;23.50;44.80;;;;;;6215745;28;80360;-61
2024/01/02 07:48:13;;;;;;;4.15;1.80;;;23.60;45.00;;;;;;6218968;27;82396;-60
2024/01/02 07:51:14;;;;;;;4.40;2.10;;;23.60;44.60;;;;;;6223726;27;83262;-61
2024/01/02 07:54:15;;;;;;;12.75;1.95;;;23.60;45.10;;;;;;6203610;27;80405;-60
2024/01/02 07:57:15;;;;;;;4.22;1.70;;;23.60;45.00;;;;;;6232885;27;81779;-60
2024/01/02 08:00:16;;;;;;;4.72;1.88;;;23.60;44.70;;;;;;6216562;27;80786;-61
2024/01/02 08:03:16;;;;;;;4.22;1.92;;;23.60;45.30;;;;;;6221391;27;81211;-61
2024/01/02 08:06:17;;;;;;;2.90;1.90;;;23.60;45.00;;;;;;6222174;27;82036;-49
2024/01/02 08:09:17;;;;;;;4.85;2.13;;;23.60;45.00;;;;;;6216954;27;80799;-60
2024/01/02 08:12:18;;;;;;;6.72;1.88;;;23.60;45.10;;;;;;6209920;27;83848;-55
2024/01/02 08:15:19;;;;;;;3.50;1.80;;;23.60;44.80;;;;;;6213610;27;82905;-50
2024/01/02 08:18:19;;;;;;;4.00;1.83;;;23.60;45.00;;;;;;6223750;27;80370;-56
2024/01/02 08:21:20;;;;;;;3.35;1.90;;;23.60;45.20;;;;;;6217471;27;80815;-50
2024/01/02 08:24:21;;;;;;;3.25;2.30;;;23.50;44.80;;;;;;6217607;27;82128;-48
2024/01/02 08:27:25;;;;;;;5.22;2.22;;;23.50;44.60;;;;;;6220859;27;80753;-53
2024/01/02 08:30:25;;;;;;;7.78;2.15;;;23.60;44.90;;;;;;6218277;27;83011;-59
2024/01/02 08:33:26;;;;;;;5.20;2.00;;;23.60;44.50;;;;;;6221548;27;80434;-55
2024/01/02 08:36:26;;;;;;;5.10;2.10;;;23.60;44.30;;;;;;6225902;27;80788;-53
2024/01/02 08:39:27;;;;;;;7.85;2.42;;;23.60;44.50;;;;;;6224825;27;80747;-56
2024/01/02 08:42:27;;;;;;;4.25;2.90;;;23.70;44.30;;;;;;6223740;27;80544;-57
2024/01/02 08:45:28;;;;;;;3.60;2.22;;;23.70;43.80;;;;;;6223431;27;80568;-51
2024/01/02 08:48:28;;;;;;;7.15;2.70;;;23.80;43.20;;;;;;6223701;27;82390;-62
2024/01/02 08:51:29;;;;;;;5.82;2.53;;;23.80;43.00;;;;;;6224148;27;81968;-66
2024/01/02 08:54:29;;;;;;;6.13;2.42;;;23.80;42.80;;;;;;6225924;27;81510;-67
2024/01/02 08:57:30;;;;;;;5.60;2.30;;;23.90;42.80;;;;;;6222549;27;84881;-69
2024/01/02 09:00:30;;;;;;;8.93;2.10;;;24.00;42.80;;;;;;6207683;27;80707;-68
2024/01/02 09:03:31;;;;;;;7.53;2.20;;;24.00;43.00;;;;;;6205755;27;81981;-64
2024/01/02 09:06:32;;;;;;;5.10;2.40;;;24.00;42.80;;;;;;6205209;27;80988;-65
2024/01/02 09:09:32;;;;;;;8.30;2.78;;;24.00;42.70;;;;;;6205124;27;83700;-65
2024/01/02 09:12:33;;;;;;;3.97;2.47;;;24.10;42.70;;;;;;6205383;28;80330;-64
2024/01/02 09:15:35;;;;;;;11.38;3.08;;;24.10;42.40;;;;;;6209630;27;80500;-66
2024/01/02 09:18:36;;;;;;;11.15;2.70;;;24.10;42.40;;;;;;6213348;27;80632;-63
2024/01/02 09:21:36;;;;;;;8.13;2.78;;;24.10;42.20;;;;;;6208096;27;83292;-67
2024/01/02 09:24:37;;;;;;;5.07;2.20;;;24.10;42.50;;;;;;6220074;27;81258;-65
2024/01/02 09:27:37;;;;;;;5.10;2.30;;;24.20;42.40;;;;;;6222107;27;82441;-67
2024/01/02 09:30:38;;;;;;;4.00;2.15;;;24.20;42.10;;;;;;6225057;28;80335;-62
2024/01/02 09:33:38;;;;;;;4.85;2.03;;;24.20;42.00;;;;;;6226931;27;80918;-65
2024/01/02 09:36:39;;;;;;;5.40;2.83;;;24.30;42.10;;;;;;6222858;27;80765;-65
2024/01/02 09:39:40;;;;;;;8.43;2.70;;;24.30;41.90;;;;;;6225597;27;80645;-65
2024/01/02 09:42:44;;;;;;;3.55;2.22;;;24.30;41.80;;;;;;6220943;27;82379;-66
2024/01/02 09:45:44;;;;;;;6.20;2.67;;;24.30;41.80;;;;;;6222079;27;80445;-61
2024/01/02 09:48:45;;;;;;;9.35;2.70;;;24.30;41.70;;;;;;6225850;27;80013;-59
2024/01/02 09:51:45;;;;;;;5.07;2.42;;;24.30;41.70;;;;;;6225941;28;87443;-60
2024/01/02 09:54:46;;;;;;;4.80;2.10;;;24.30;41.70;;;;;;6227509;27;81243;-60
2024/01/02 09:57:46;;;;;;;5.78;2.88;;;24.30;41.70;;;;;;6221458;27;80769;-61
2024/01/02 10:00:47;;;;;;;5.32;2.00;;;24.30;41.70;;;;;;6227989;27;81611;-62
2024/01/02 10:03:48;;;;;;;6.10;2.53;;;24.30;41.70;;;;;;6229382;27;80605;-62
2024/01/02 10:06:48;;;;;;;5.13;2.55;;;24.30;41.60;;;;;;6228837;27;83488;-61
2024/01/02 10:09:50;;;;;;;5.90;2.28;;;24.40;41.00;;;;;;6228483;27;81303;-60
2024/01/02 10:12:51;;;;;;;6.05;2.50;;;24.40;40.90;;;;;;6226850;27;81413;-60
2024/01/02 10:15:52;;;;;;;5.57;2.30;;;24.40;40.80;;;;;;6226266;27;81069;-61
2024/01/02 10:18:52;;;;;;;5.25;2.30;;;24.40;40.50;;;;;;6230123;27;80576;-61
2024/01/02 10:21:53;;;;;;;7.70;2.75;;;24.40;40.50;;;;;;6216141;27;82895;-67
2024/01/02 10:24:53;;;;;;;6.65;2.72;;;24.40;40.50;;;;;;6226631;27;80303;-68
2024/01/02 10:27:54;;;;;;;4.15;1.90;;;24.40;40.40;;;;;;6224516;27;80942;-67
2024/01/02 10:30:54;;;;;;;5.38;2.33;;;24.40;40.00;;;;;;6218877;27;84389;-66
2024/01/02 10:33:55;;;;;;;11.35;3.22;;;24.50;40.20;;;;;;6224691;27;82226;-65
2024/01/02 10:36:55;;;;;;;5.88;2.53;;;24.50;40.00;;;;;;6224202;27;80234;-62
2024/01/02 10:39:56;;;;;;;6.45;2.35;;;24.50;40.60;;;;;;6216125;27;80575;-63
2024/01/02 10:42:57;;;;;;;6.70;2.72;;;24.50;41.90;;;;;;6210175;27;81016;-61
2024/01/02 10:45:57;;;;;;;5.13;2.08;;;24.40;42.90;;;;;;6204673;27;80671;-62
2024/01/02 10:48:58;;;;;;;7.45;2.53;;;24.40;43.70;;;;;;6204589;27;80885;-61
2024/01/02 10:51:59;;;;;;;4.75;2.53;;;24.40;46.20;;;;;;6216875;27;80440;-61
2024/01/02 10:54:59;;;;;;;6.40;2.75;;;24.40;47.60;;;;;;6216845;27;81156;-61
2024/01/02 10:57:59;;;;;;;3.88;2.15;;;24.30;48.40;;;;;;6219828;27;80571;-60
2024/01/02 11:01:00;;;;;;;5.35;2.22;;;24.30;48.20;;;;;;6228819;27;80290;-61
2024/01/02 11:04:00;;;;;;;7.63;2.22;;;24.20;47.10;;;;;;6228584;27;80272;-62
2024/01/02 11:07:02;;;;;;;5.18;2.08;;;24.20;46.30;;;;;;6227775;27;80409;-62
2024/01/02 11:10:03;;;;;;;6.32;2.58;;;24.10;46.30;;;;;;6221508;27;80870;-64
2024/01/02 11:13:03;;;;;;;4.03;1.98;;;24.10;47.30;;;;;;6219271;27;82655;-63
2024/01/02 11:16:05;;;;;;;9.40;2.17;;;24.00;48.20;;;;;;6227109;27;83030;-62
2024/01/02 11:19:06;;;;;;;3.72;2.22;;;24.00;47.80;;;;;;6222764;27;81026;-63
2024/01/02 11:22:06;;;;;;;4.22;2.20;;;24.00;47.00;;;;;;6226451;27;81639;-62
2024/01/02 11:25:07;;;;;;;5.22;2.30;;;24.00;47.10;;;;;;6226220;27;80165;-62
2024/01/02 11:28:07;;;;;;;3.70;2.08;;;24.00;47.50;;;;;;6225772;27;80488;-62
2024/01/02 11:31:08;;;;;;;5.00;2.05;;;24.00;47.20;;;;;;6225572;27;80672;-63
2024/01/02 11:34:08;;;;;;;7.35;2.45;;;24.00;47.40;;;;;;6226581;27;80287;-59
2024/01/02 11:37:08;;;;;;;3.67;2.30;;;24.10;47.80;;;;;;6224354;27;80374;-60
2024/01/02 11:40:09;;;;;;;6.38;2.63;;;24.10;48.40;;;;;;6226959;27;80602;-59
2024/01/02 11:43:10;;;;;;;6.57;2.40;;;24.10;47.40;;;;;;6226080;27;80520;-59
2024/01/02 11:46:11;;;;;;;5.70;2.35;;;24.10;49.40;;;;;;6206161;27;80493;-58
2024/01/02 11:49:11;;;;;;;4.60;1.95;;;24.00;49.20;;;;;;6212129;27;81109;-58
2024/01/02 11:52:12;;;;;;;6.13;2.30;;;24.00;48.90;;;;;;6228014;27;82968;-61
2024/01/02 11:55:13;;;;;;;6.38;2.47;;;24.00;48.60;;;;;;6214295;27;84240;-61
2024/01/02 11:58:13;;;;;;;4.45;2.42;;;23.90;49.20;;;;;;6210909;27;81695;-60
2024/01/02 12:01:14;;;;;;;6.35;2.50;;;23.90;50.80;;;;;;6214675;27;80866;-61
2024/01/02 12:04:14;;;;;;;6.63;2.30;;;23.90;51.00;;;;;;6221904;27;80924;-63
2024/01/02 12:07:15;;;;;;;7.07;2.08;;;23.80;51.40;;;;;;6219527;27;80464;-59
2024/01/02 12:10:15;;;;;;;4.82;2.35;;;23.80;51.20;;;;;;6220963;27;80285;-63
2024/01/02 12:13:16;;;;;;;6.30;2.80;;;23.80;51.20;;;;;;6213460;27;80296;-63
2024/01/02 12:16:16;;;;;;;4.55;1.95;;;23.80;51.20;;;;;;6213689;27;80597;-66
2024/01/02 12:19:17;;;;;;;5.15;2.65;;;23.70;51.50;;;;;;6223151;27;83598;-64
2024/01/02 12:22:17;;;;;;;4.57;2.55;;;23.70;51.30;;;;;;6215056;27;80881;-63
2024/01/02 12:25:18;;;;;;;5.70;2.35;;;23.70;52.00;;;;;;6208452;27;80746;-71
2024/01/02 12:28:19;;;;;;;5.95;2.40;;;23.70;52.10;;;;;;6217452;27;81073;-62
2024/01/02 12:31:19;;;;;;;4.85;2.50;;;23.70;52.70;;;;;;6218997;27;81559;-63
2024/01/02 12:34:20;;;;;;;8.02;2.35;;;23.60;53.70;;;;;;6213852;27;80417;-61
2024/01/02 12:37:21;;;;;;;6.38;2.85;;;23.60;54.50;;;;;;6214993;28;81835;-63
2024/01/02 12:40:21;;;;;;;5.53;3.20;;;23.60;53.60;;;;;;6213584;27;80422;-62
2024/01/02 12:43:25;;;;;;;5.70;2.60;;;23.60;54.10;;;;;;6219760;27;81087;-63
2024/01/02 12:46:26;;;;;;;5.60;2.58;;;23.60;54.30;;;;;;6222024;27;80673;-63
2024/01/02 12:49:27;;;;;;;5.72;2.58;;;23.60;54.20;;;;;;6217654;27;80385;-62
2024/01/02 12:52:28;;;;;;;6.03;2.40;;;23.60;56.60;;;;;;6213567;27;81870;-61
2024/01/02 12:55:28;;;;;;;4.47;2.50;;;23.50;56.90;;;;;;6214408;27;81120;-63
2024/01/02 12:58:31;;;;;;;4.85;2.50;;;23.50;56.40;;;;;;6219627;27;81878;-63
2024/01/02 13:01:31;;;;;;;6.65;2.78;;;23.50;55.40;;;;;;6213167;27;80656;-62
2024/01/02 13:04:35;;;;;;;7.25;2.35;;;23.50;54.40;;;;;;6219615;27;80383;-65
2024/01/02 13:07:36;;;;;;;5.60;2.30;;;23.50;53.80;;;;;;6216963;27;82684;-60
2024/01/02 13:10:37;;;;;;;4.35;2.10;;;23.50;55.50;;;;;;6214478;28;80653;-60
2024/01/02 13:13:38;;;;;;;4.57;2.65;;;23.50;55.30;;;;;;6215188;27;81006;-59
2024/01/02 13:16:39;;;;;;;6.82;3.00;;;23.50;54.20;;;;;;6213887;27;81380;-60
2024/01/02 13:19:40;;;;;;;4.03;2.10;;;23.50;54.60;;;;;;6217600;27;81214;-61
2024/01/02 13:22:40;;;;;;;6.43;2.45;;;23.40;54.90;;;;;;6222921;27;81190;-60
2024/01/02 13:25:41;;;;;;;8.27;2.47;;;23.40;55.50;;;;;;6222698;27;80244;-58
2024/01/02 13:28:41;;;;;;;6.07;2.85;;;23.40;55.80;;;;;;6218734;27;83226;-58
2024/01/02 13:31:42;;;;;;;3.15;2.15;;;23.40;56.40;;;;;;6224462;27;83523;-54
2024/01/02 13:34:43;;;;;;;5.78;2.38;;;23.40;56.30;;;;;;6216570;27;80607;-56
2024/01/02 13:37:44;;;;;;;6.20;3.00;;;23.30;56.80;;;;;;6221015;27;80728;-57
2024/01/02 13:40:44;;;;;;;5.68;2.60;;;23.30;56.30;;;;;;6217314;27;81368;-53
2024/01/02 13:43:45;;;;;;;7.13;2.60;;;23.30;56.40;;;;;;6223275;28;82479;-53
2024/01/02 13:46:45;;;;;;;5.47;2.72;;;23.20;58.00;;;;;;6217287;27;81568;-55
2024/01/02 13:49:47;;;;;;;7.75;3.42;;;23.20;56.60;;;;;;6218109;27;80820;-55
2024/01/02 13:52:48;;;;;;;11.10;4.10;;;23.00;49.10;;;;;;6216695;27;80575;-56
2024/01/02 13:55:48;;;;;;;16.60;4.40;;;22.70;45.00;;;;;;6211976;27;80226;-56
2024/01/02 13:58:49;;;;;;;10.73;5.70;;;22.40;43.50;;;;;;6199763;27;81489;-54
2024/01/02 14:01:50;;;;;;;15.95;6.20;;;22.20;42.40;;;;;;6198879;27;80658;-61
2024/01/02 14:04:51;;;;;;;17.00;6.50;;;21.80;41.10;;;;;;6198173;27;80889;-61
2024/01/02 14:07:51;;;;;;;15.88;6.82;;;21.20;40.30;;;;;;6202721;27;80624;-60
2024/01/02 14:10:52;;;;;;;17.02;7.15;;;20.80;40.10;;;;;;6203715;27;80663;-60
2024/01/02 14:13:55;;;;;;;15.75;6.45;;;20.40;40.40;;;;;;6202702;27;81147;-60
2024/01/02 14:16:55;;;;;;;18.17;6.50;;;20.20;41.00;;;;;;6205693;27;81283;-61
2024/01/02 14:19:55;;;;;;;15.52;7.05;;;20.10;40.90;;;;;;6221402;27;80491;-60
2024/01/02 14:22:56;;;;;;;15.38;7.10;;;20.10;40.90;;;;;;6220569;27;83195;-62
2024/01/02 14:25:57;;;;;;;14.63;7.07;;;20.10;40.70;;;;;;6206370;27;80398;-60
2024/01/02 14:28:59;;;;;;;16.55;7.95;;;20.00;40.70;;;;;;6224467;27;80587;-61
2024/01/02 14:32:00;;;;;;;16.80;8.30;;;19.90;40.60;;;;;;6207623;27;80972;-62
2024/01/02 14:35:00;;;;;;;15.90;7.30;;;19.60;40.40;;;;;;6198496;28;81634;-62
2024/01/02 14:38:01;;;;;;;14.27;7.57;;;19.90;42.70;;;;;;6224952;27;80624;-61
2024/01/02 14:41:02;;;;;;;14.43;6.60;;;20.30;43.60;;;;;;6219918;27;81208;-62
2024/01/02 14:44:03;;;;;;;13.18;6.68;;;20.60;44.40;;;;;;6217836;27;80341;-61
2024/01/02 14:47:03;;;;;;;14.38;6.57;;;20.90;44.60;;;;;;6228303;27;80352;-59
2024/01/02 14:50:07;;;;;;;16.48;6.78;;;21.20;45.50;;;;;;6224393;27;81315;-59
2024/01/02 14:53:07;;;;;;;13.48;6.03;;;21.40;45.50;;;;;;6227786;27;81812;-60
2024/01/02 14:56:08;;;;;;;14.20;6.40;;;21.60;46.20;;;;;;6230100;27;80644;-60
2024/01/02 14:59:08;;;;;;;15.07;5.80;;;21.60;46.60;;;;;;6222910;27;85088;-60
2024/01/02 15:02:10;;;;;;;10.55;5.75;;;21.80;47.30;;;;;;6219444;27;81688;-60
2024/01/02 15:05:10;;;;;;;13.70;4.85;;;21.90;47.90;;;;;;6215358;27;80593;-60
2024/01/02 15:08:10;;;;;;;14.23;5.80;;;22.00;48.20;;;;;;6221147;27;81567;-61
2024/01/02 15:11:11;;;;;;;12.25;5.38;;;22.00;48.20;;;;;;6211543;27;80917;-60
2024/01/02 15:14:11;;;;;;;7.93;4.72;;;22.10;48.70;;;;;;6216764;27;80666;-65
2024/01/02 15:17:12;;;;;;;9.70;4.80;;;22.20;49.10;;;;;;6226931;27;81260;-67
2024/01/02 15:20:12;;;;;;;12.52;4.90;;;22.30;49.00;;;;;;6225059;27;80907;-66
2024/01/02 15:23:13;;;;;;;8.35;5.05;;;22.40;50.20;;;;;;6223732;27;80683;-67
2024/01/02 15:26:13;;;;;;;8.57;4.25;;;22.50;50.10;;;;;;6221136;27;80167;-66
2024/01/02 15:29:15;;;;;;;15.48;4.43;;;22.50;51.10;;;;;;6227612;27;80375;-66
2024/01/02 15:32:15;;;;;;;8.20;4.63;;;22.50;50.80;;;;;;6218007;28;80812;-64
2024/01/02 15:35:16;;;;;;;8.20;3.85;;;22.60;50.60;;;;;;6212256;27;80358;-61
2024/01/02 15:38:19;;;;;;;11.60;3.90;;;22.60;50.10;;;;;;6215911;27;80708;-61